sensor_id;sensor_type;location;lat;lon;timestamp;P1;durP1;ratioP1;P2;durP2;ratioP2
67130;SDS011;54051;53.464;49.532;2023-07-20T00:01:59;4.57;;;2.40;;
67130;SDS011;54051;53.464;49.532;2023-07-20T00:04:25;5.87;;;2.40;;
67130;SDS011;54051;53.464;49.532;2023-07-20T00:06:51;5.10;;;2.10;;
67130;SDS011;54051;53.464;49.532;2023-07-20T00:09:17;4.10;;;1.93;;
67130;SDS011;54051;53.464;49.532;2023-07-20T00:11:48;4.30;;;2.10;;
67130;SDS011;54051;53.464;49.532;2023-07-20T00:14:16;4.13;;;1.92;;
67130;SDS011;54051;53.464;49.532;2023-07-20T00:16:43;4.80;;;2.00;;
67130;SDS011;54051;53.464;49.532;2023-07-20T00:21:36;4.57;;;1.75;;
67130;SDS011;54051;53.464;49.532;2023-07-20T00:26:29;5.00;;;2.00;;
67130;SDS011;54051;53.464;49.532;2023-07-20T00:28:54;5.33;;;2.20;;
67130;SDS011;54051;53.464;49.532;2023-07-20T00:31:20;5.72;;;1.95;;
67130;SDS011;54051;53.464;49.532;2023-07-20T00:33:46;8.77;;;2.30;;
67130;SDS011;54051;53.464;49.532;2023-07-20T00:36:12;5.53;;;2.03;;
67130;SDS011;54051;53.464;49.532;2023-07-20T00:38:38;4.25;;;2.10;;
67130;SDS011;54051;53.464;49.532;2023-07-20T00:41:04;4.17;;;2.00;;
67130;SDS011;54051;53.464;49.532;2023-07-20T00:43:30;4.55;;;2.10;;
67130;SDS011;54051;53.464;49.532;2023-07-20T00:45:56;4.72;;;2.05;;
67130;SDS011;54051;53.464;49.532;2023-07-20T00:48:23;4.63;;;2.00;;
67130;SDS011;54051;53.464;49.532;2023-07-20T00:50:49;4.20;;;2.13;;
67130;SDS011;54051;53.464;49.532;2023-07-20T00:53:15;6.18;;;2.00;;
67130;SDS011;54051;53.464;49.532;2023-07-20T00:55:42;4.57;;;1.90;;
67130;SDS011;54051;53.464;49.532;2023-07-20T00:58:09;4.75;;;2.05;;
67130;SDS011;54051;53.464;49.532;2023-07-20T01:00:35;4.57;;;2.00;;
67130;SDS011;54051;53.464;49.532;2023-07-20T01:03:01;5.67;;;1.83;;
67130;SDS011;54051;53.464;49.532;2023-07-20T01:05:33;3.58;;;1.80;;
67130;SDS011;54051;53.464;49.532;2023-07-20T01:08:15;6.60;;;2.33;;
67130;SDS011;54051;53.464;49.532;2023-07-20T01:10:51;4.57;;;2.30;;
67130;SDS011;54051;53.464;49.532;2023-07-20T01:13:23;3.78;;;2.00;;
67130;SDS011;54051;53.464;49.532;2023-07-20T01:18:18;4.05;;;1.83;;
67130;SDS011;54051;53.464;49.532;2023-07-20T01:20:45;7.30;;;1.98;;
67130;SDS011;54051;53.464;49.532;2023-07-20T01:23:28;4.43;;;1.98;;
67130;SDS011;54051;53.464;49.532;2023-07-20T01:31:49;5.15;;;1.92;;
67130;SDS011;54051;53.464;49.532;2023-07-20T01:34:19;4.63;;;2.03;;
67130;SDS011;54051;53.464;49.532;2023-07-20T01:36:47;4.07;;;2.00;;
67130;SDS011;54051;53.464;49.532;2023-07-20T01:39:15;5.40;;;2.10;;
67130;SDS011;54051;53.464;49.532;2023-07-20T01:41:42;5.10;;;2.15;;
67130;SDS011;54051;53.464;49.532;2023-07-20T01:44:08;5.32;;;2.33;;
67130;SDS011;54051;53.464;49.532;2023-07-20T01:46:34;4.53;;;2.00;;
67130;SDS011;54051;53.464;49.532;2023-07-20T01:49:00;5.30;;;2.07;;
67130;SDS011;54051;53.464;49.532;2023-07-20T01:51:26;3.97;;;1.83;;
67130;SDS011;54051;53.464;49.532;2023-07-20T01:53:52;6.53;;;2.00;;
67130;SDS011;54051;53.464;49.532;2023-07-20T01:56:18;4.43;;;2.00;;
67130;SDS011;54051;53.464;49.532;2023-07-20T01:58:44;6.60;;;2.30;;
67130;SDS011;54051;53.464;49.532;2023-07-20T02:01:10;4.20;;;1.67;;
67130;SDS011;54051;53.464;49.532;2023-07-20T02:03:36;4.50;;;2.00;;
67130;SDS011;54051;53.464;49.532;2023-07-20T02:06:02;7.23;;;2.33;;
67130;SDS011;54051;53.464;49.532;2023-07-20T02:08:28;4.30;;;2.10;;
67130;SDS011;54051;53.464;49.532;2023-07-20T02:10:54;4.40;;;1.90;;
67130;SDS011;54051;53.464;49.532;2023-07-20T02:13:20;3.80;;;1.90;;
67130;SDS011;54051;53.464;49.532;2023-07-20T02:15:46;5.20;;;1.90;;
67130;SDS011;54051;53.464;49.532;2023-07-20T02:18:16;4.55;;;2.00;;
67130;SDS011;54051;53.464;49.532;2023-07-20T02:20:42;4.78;;;2.05;;
67130;SDS011;54051;53.464;49.532;2023-07-20T02:23:09;4.63;;;1.80;;
67130;SDS011;54051;53.464;49.532;2023-07-20T02:25:36;5.93;;;2.13;;
67130;SDS011;54051;53.464;49.532;2023-07-20T02:28:02;4.00;;;1.90;;
67130;SDS011;54051;53.464;49.532;2023-07-20T02:30:29;4.25;;;1.90;;
67130;SDS011;54051;53.464;49.532;2023-07-20T02:32:55;4.13;;;1.70;;
67130;SDS011;54051;53.464;49.532;2023-07-20T02:35:24;4.95;;;1.83;;
67130;SDS011;54051;53.464;49.532;2023-07-20T02:37:50;5.45;;;2.10;;
67130;SDS011;54051;53.464;49.532;2023-07-20T02:40:18;4.78;;;2.10;;
67130;SDS011;54051;53.464;49.532;2023-07-20T02:42:44;5.55;;;2.00;;
67130;SDS011;54051;53.464;49.532;2023-07-20T02:45:10;6.07;;;2.05;;
67130;SDS011;54051;53.464;49.532;2023-07-20T02:47:36;4.30;;;2.10;;
67130;SDS011;54051;53.464;49.532;2023-07-20T02:50:02;6.85;;;2.00;;
67130;SDS011;54051;53.464;49.532;2023-07-20T02:52:31;5.63;;;2.10;;
67130;SDS011;54051;53.464;49.532;2023-07-20T02:54:57;5.22;;;2.00;;
67130;SDS011;54051;53.464;49.532;2023-07-20T02:57:23;4.00;;;1.90;;
67130;SDS011;54051;53.464;49.532;2023-07-20T02:59:49;4.45;;;2.00;;
67130;SDS011;54051;53.464;49.532;2023-07-20T03:02:15;4.72;;;2.10;;
67130;SDS011;54051;53.464;49.532;2023-07-20T03:04:41;4.97;;;2.00;;
67130;SDS011;54051;53.464;49.532;2023-07-20T03:07:07;3.80;;;2.00;;
67130;SDS011;54051;53.464;49.532;2023-07-20T03:09:33;5.15;;;1.92;;
67130;SDS011;54051;53.464;49.532;2023-07-20T03:12:01;5.53;;;2.00;;
67130;SDS011;54051;53.464;49.532;2023-07-20T03:14:29;4.68;;;1.83;;
67130;SDS011;54051;53.464;49.532;2023-07-20T03:16:55;6.80;;;2.05;;
67130;SDS011;54051;53.464;49.532;2023-07-20T03:19:21;5.47;;;2.05;;
67130;SDS011;54051;53.464;49.532;2023-07-20T03:21:48;4.97;;;1.98;;
67130;SDS011;54051;53.464;49.532;2023-07-20T03:24:14;6.03;;;2.28;;
67130;SDS011;54051;53.464;49.532;2023-07-20T03:26:41;4.43;;;2.00;;
67130;SDS011;54051;53.464;49.532;2023-07-20T03:29:10;5.10;;;2.10;;
67130;SDS011;54051;53.464;49.532;2023-07-20T03:34:02;4.63;;;1.80;;
67130;SDS011;54051;53.464;49.532;2023-07-20T03:36:28;4.43;;;1.90;;
67130;SDS011;54051;53.464;49.532;2023-07-20T03:41:19;4.63;;;2.00;;
67130;SDS011;54051;53.464;49.532;2023-07-20T03:43:47;5.43;;;1.80;;
67130;SDS011;54051;53.464;49.532;2023-07-20T03:48:38;5.15;;;2.10;;
67130;SDS011;54051;53.464;49.532;2023-07-20T03:51:04;4.47;;;1.85;;
67130;SDS011;54051;53.464;49.532;2023-07-20T03:53:30;4.75;;;1.88;;
67130;SDS011;54051;53.464;49.532;2023-07-20T03:55:57;5.30;;;1.80;;
67130;SDS011;54051;53.464;49.532;2023-07-20T03:58:23;4.63;;;2.00;;
67130;SDS011;54051;53.464;49.532;2023-07-20T04:00:50;4.70;;;2.00;;
67130;SDS011;54051;53.464;49.532;2023-07-20T04:03:20;4.47;;;2.13;;
67130;SDS011;54051;53.464;49.532;2023-07-20T04:05:48;5.70;;;2.03;;
67130;SDS011;54051;53.464;49.532;2023-07-20T04:08:14;4.40;;;1.98;;
67130;SDS011;54051;53.464;49.532;2023-07-20T04:10:43;3.92;;;1.70;;
67130;SDS011;54051;53.464;49.532;2023-07-20T04:13:09;5.90;;;1.88;;
67130;SDS011;54051;53.464;49.532;2023-07-20T04:15:35;5.57;;;1.90;;
67130;SDS011;54051;53.464;49.532;2023-07-20T04:18:02;6.55;;;2.28;;
67130;SDS011;54051;53.464;49.532;2023-07-20T04:20:30;3.97;;;2.00;;
67130;SDS011;54051;53.464;49.532;2023-07-20T04:22:56;5.50;;;2.13;;
67130;SDS011;54051;53.464;49.532;2023-07-20T04:25:22;4.95;;;2.17;;
67130;SDS011;54051;53.464;49.532;2023-07-20T04:27:48;6.28;;;2.03;;
67130;SDS011;54051;53.464;49.532;2023-07-20T04:30:16;3.80;;;1.98;;
67130;SDS011;54051;53.464;49.532;2023-07-20T04:32:45;5.80;;;1.80;;
67130;SDS011;54051;53.464;49.532;2023-07-20T04:35:16;5.22;;;1.90;;
67130;SDS011;54051;53.464;49.532;2023-07-20T04:37:44;4.55;;;1.90;;
67130;SDS011;54051;53.464;49.532;2023-07-20T04:40:15;3.75;;;1.88;;
67130;SDS011;54051;53.464;49.532;2023-07-20T04:42:41;4.75;;;1.88;;
67130;SDS011;54051;53.464;49.532;2023-07-20T04:45:07;6.75;;;1.90;;
67130;SDS011;54051;53.464;49.532;2023-07-20T04:47:33;6.13;;;2.00;;
67130;SDS011;54051;53.464;49.532;2023-07-20T04:49:59;4.85;;;2.10;;
67130;SDS011;54051;53.464;49.532;2023-07-20T04:52:26;5.90;;;1.88;;
67130;SDS011;54051;53.464;49.532;2023-07-20T04:54:52;4.28;;;2.00;;
67130;SDS011;54051;53.464;49.532;2023-07-20T04:57:17;5.78;;;2.20;;
67130;SDS011;54051;53.464;49.532;2023-07-20T04:59:44;5.18;;;2.28;;
67130;SDS011;54051;53.464;49.532;2023-07-20T05:02:10;6.72;;;2.20;;
67130;SDS011;54051;53.464;49.532;2023-07-20T05:04:36;5.22;;;2.10;;
67130;SDS011;54051;53.464;49.532;2023-07-20T05:07:02;4.97;;;2.30;;
67130;SDS011;54051;53.464;49.532;2023-07-20T05:09:28;5.03;;;2.60;;
67130;SDS011;54051;53.464;49.532;2023-07-20T05:11:54;5.38;;;2.47;;
67130;SDS011;54051;53.464;49.532;2023-07-20T05:14:20;5.40;;;2.65;;
67130;SDS011;54051;53.464;49.532;2023-07-20T05:16:46;5.63;;;2.60;;
67130;SDS011;54051;53.464;49.532;2023-07-20T05:19:12;6.32;;;2.70;;
67130;SDS011;54051;53.464;49.532;2023-07-20T05:21:38;6.35;;;2.80;;
67130;SDS011;54051;53.464;49.532;2023-07-20T05:24:04;5.38;;;3.05;;
67130;SDS011;54051;53.464;49.532;2023-07-20T05:26:31;5.47;;;3.05;;
67130;SDS011;54051;53.464;49.532;2023-07-20T05:28:58;5.72;;;2.90;;
67130;SDS011;54051;53.464;49.532;2023-07-20T05:31:24;5.65;;;2.78;;
67130;SDS011;54051;53.464;49.532;2023-07-20T05:33:51;5.80;;;1.90;;
67130;SDS011;54051;53.464;49.532;2023-07-20T05:36:17;6.68;;;2.25;;
67130;SDS011;54051;53.464;49.532;2023-07-20T05:38:43;6.22;;;2.40;;
67130;SDS011;54051;53.464;49.532;2023-07-20T05:41:09;4.30;;;2.30;;
67130;SDS011;54051;53.464;49.532;2023-07-20T05:43:35;4.60;;;2.30;;
67130;SDS011;54051;53.464;49.532;2023-07-20T05:46:01;4.70;;;2.22;;
67130;SDS011;54051;53.464;49.532;2023-07-20T05:48:27;4.22;;;2.20;;
67130;SDS011;54051;53.464;49.532;2023-07-20T05:50:53;6.47;;;2.40;;
67130;SDS011;54051;53.464;49.532;2023-07-20T05:53:19;6.70;;;2.20;;
67130;SDS011;54051;53.464;49.532;2023-07-20T05:55:51;4.38;;;1.95;;
67130;SDS011;54051;53.464;49.532;2023-07-20T05:58:17;4.35;;;1.98;;
67130;SDS011;54051;53.464;49.532;2023-07-20T06:00:46;5.55;;;2.22;;
67130;SDS011;54051;53.464;49.532;2023-07-20T06:03:17;5.57;;;2.60;;
67130;SDS011;54051;53.464;49.532;2023-07-20T06:05:43;4.13;;;2.22;;
67130;SDS011;54051;53.464;49.532;2023-07-20T06:08:09;4.47;;;2.20;;
67130;SDS011;54051;53.464;49.532;2023-07-20T06:10:35;4.70;;;2.22;;
67130;SDS011;54051;53.464;49.532;2023-07-20T06:13:01;5.38;;;2.40;;
67130;SDS011;54051;53.464;49.532;2023-07-20T06:15:33;5.70;;;2.42;;
67130;SDS011;54051;53.464;49.532;2023-07-20T06:18:04;5.60;;;2.10;;
67130;SDS011;54051;53.464;49.532;2023-07-20T06:20:30;5.75;;;1.98;;
67130;SDS011;54051;53.464;49.532;2023-07-20T06:22:57;4.85;;;2.00;;
67130;SDS011;54051;53.464;49.532;2023-07-20T06:25:23;4.93;;;1.75;;
67130;SDS011;54051;53.464;49.532;2023-07-20T06:27:49;4.47;;;1.70;;
67130;SDS011;54051;53.464;49.532;2023-07-20T06:30:19;7.85;;;2.10;;
67130;SDS011;54051;53.464;49.532;2023-07-20T06:32:45;3.65;;;1.70;;
67130;SDS011;54051;53.464;49.532;2023-07-20T06:35:11;3.72;;;1.50;;
67130;SDS011;54051;53.464;49.532;2023-07-20T06:37:37;4.00;;;1.70;;
67130;SDS011;54051;53.464;49.532;2023-07-20T06:40:04;5.85;;;2.08;;
67130;SDS011;54051;53.464;49.532;2023-07-20T06:42:30;4.63;;;2.20;;
67130;SDS011;54051;53.464;49.532;2023-07-20T06:44:57;3.80;;;1.80;;
67130;SDS011;54051;53.464;49.532;2023-07-20T06:47:23;6.80;;;1.85;;
67130;SDS011;54051;53.464;49.532;2023-07-20T06:49:49;4.68;;;1.70;;
67130;SDS011;54051;53.464;49.532;2023-07-20T06:52:16;4.40;;;1.80;;
67130;SDS011;54051;53.464;49.532;2023-07-20T06:54:42;3.58;;;1.70;;
67130;SDS011;54051;53.464;49.532;2023-07-20T06:57:08;4.40;;;1.90;;
67130;SDS011;54051;53.464;49.532;2023-07-20T06:59:34;4.13;;;1.70;;
67130;SDS011;54051;53.464;49.532;2023-07-20T07:02:00;4.18;;;1.80;;
67130;SDS011;54051;53.464;49.532;2023-07-20T07:04:26;4.97;;;1.70;;
67130;SDS011;54051;53.464;49.532;2023-07-20T07:06:53;3.63;;;1.55;;
67130;SDS011;54051;53.464;49.532;2023-07-20T07:09:19;4.57;;;1.70;;
67130;SDS011;54051;53.464;49.532;2023-07-20T07:11:46;4.57;;;1.70;;
67130;SDS011;54051;53.464;49.532;2023-07-20T07:14:12;5.57;;;1.70;;
67130;SDS011;54051;53.464;49.532;2023-07-20T07:16:38;5.38;;;1.70;;
67130;SDS011;54051;53.464;49.532;2023-07-20T07:19:04;4.45;;;1.40;;
67130;SDS011;54051;53.464;49.532;2023-07-20T07:21:31;4.30;;;1.60;;
67130;SDS011;54051;53.464;49.532;2023-07-20T07:23:57;5.22;;;1.80;;
67130;SDS011;54051;53.464;49.532;2023-07-20T07:26:25;4.03;;;1.67;;
67130;SDS011;54051;53.464;49.532;2023-07-20T07:28:51;4.60;;;1.65;;
67130;SDS011;54051;53.464;49.532;2023-07-20T07:31:17;4.13;;;1.40;;
67130;SDS011;54051;53.464;49.532;2023-07-20T07:33:43;5.03;;;1.45;;
67130;SDS011;54051;53.464;49.532;2023-07-20T07:36:09;4.15;;;1.50;;
67130;SDS011;54051;53.464;49.532;2023-07-20T07:38:35;5.47;;;1.50;;
67130;SDS011;54051;53.464;49.532;2023-07-20T07:41:01;5.47;;;1.52;;
67130;SDS011;54051;53.464;49.532;2023-07-20T07:43:27;4.53;;;1.60;;
67130;SDS011;54051;53.464;49.532;2023-07-20T07:45:54;3.63;;;1.40;;
67130;SDS011;54051;53.464;49.532;2023-07-20T07:48:21;4.00;;;1.40;;
67130;SDS011;54051;53.464;49.532;2023-07-20T07:50:47;3.75;;;1.50;;
67130;SDS011;54051;53.464;49.532;2023-07-20T07:53:13;4.28;;;1.50;;
67130;SDS011;54051;53.464;49.532;2023-07-20T07:55:39;4.90;;;1.50;;
67130;SDS011;54051;53.464;49.532;2023-07-20T07:58:06;3.75;;;1.58;;
67130;SDS011;54051;53.464;49.532;2023-07-20T08:00:32;3.65;;;1.40;;
67130;SDS011;54051;53.464;49.532;2023-07-20T08:02:58;4.85;;;1.63;;
67130;SDS011;54051;53.464;49.532;2023-07-20T08:05:24;4.45;;;1.50;;
67130;SDS011;54051;53.464;49.532;2023-07-20T08:07:51;5.45;;;1.63;;
67130;SDS011;54051;53.464;49.532;2023-07-20T08:10:18;5.50;;;1.75;;
67130;SDS011;54051;53.464;49.532;2023-07-20T08:12:44;6.03;;;1.50;;
67130;SDS011;54051;53.464;49.532;2023-07-20T08:15:10;5.38;;;1.60;;
67130;SDS011;54051;53.464;49.532;2023-07-20T08:17:37;6.43;;;1.70;;
67130;SDS011;54051;53.464;49.532;2023-07-20T08:20:04;7.47;;;1.80;;
67130;SDS011;54051;53.464;49.532;2023-07-20T08:22:32;3.63;;;1.60;;
67130;SDS011;54051;53.464;49.532;2023-07-20T08:24:58;4.95;;;1.40;;
67130;SDS011;54051;53.464;49.532;2023-07-20T08:27:44;5.20;;;1.77;;
67130;SDS011;54051;53.464;49.532;2023-07-20T08:30:11;5.38;;;2.50;;
67130;SDS011;54051;53.464;49.532;2023-07-20T08:32:37;4.47;;;1.50;;
67130;SDS011;54051;53.464;49.532;2023-07-20T08:35:04;6.18;;;1.50;;
67130;SDS011;54051;53.464;49.532;2023-07-20T08:37:31;3.38;;;1.40;;
67130;SDS011;54051;53.464;49.532;2023-07-20T08:39:57;3.75;;;1.38;;
67130;SDS011;54051;53.464;49.532;2023-07-20T08:44:49;3.33;;;1.27;;
67130;SDS011;54051;53.464;49.532;2023-07-20T08:47:18;3.90;;;1.40;;
67130;SDS011;54051;53.464;49.532;2023-07-20T08:49:48;6.72;;;1.45;;
67130;SDS011;54051;53.464;49.532;2023-07-20T08:52:14;4.35;;;1.30;;
67130;SDS011;54051;53.464;49.532;2023-07-20T08:54:40;4.45;;;1.70;;
67130;SDS011;54051;53.464;49.532;2023-07-20T08:59:33;3.78;;;1.20;;
67130;SDS011;54051;53.464;49.532;2023-07-20T09:02:04;4.80;;;1.40;;
67130;SDS011;54051;53.464;49.532;2023-07-20T09:04:32;4.07;;;1.35;;
67130;SDS011;54051;53.464;49.532;2023-07-20T09:09:24;4.30;;;1.40;;
67130;SDS011;54051;53.464;49.532;2023-07-20T09:11:50;6.10;;;1.60;;
67130;SDS011;54051;53.464;49.532;2023-07-20T09:14:16;7.15;;;1.52;;
67130;SDS011;54051;53.464;49.532;2023-07-20T09:16:55;4.00;;;1.42;;
67130;SDS011;54051;53.464;49.532;2023-07-20T09:19:21;6.72;;;1.48;;
67130;SDS011;54051;53.464;49.532;2023-07-20T09:21:49;3.88;;;1.40;;
67130;SDS011;54051;53.464;49.532;2023-07-20T09:24:17;4.00;;;1.33;;
67130;SDS011;54051;53.464;49.532;2023-07-20T09:26:45;3.47;;;1.30;;
67130;SDS011;54051;53.464;49.532;2023-07-20T09:29:19;3.30;;;1.30;;
67130;SDS011;54051;53.464;49.532;2023-07-20T09:32:02;5.90;;;1.33;;
67130;SDS011;54051;53.464;49.532;2023-07-20T09:34:32;3.03;;;1.17;;
67130;SDS011;54051;53.464;49.532;2023-07-20T09:36:58;4.88;;;1.70;;
67130;SDS011;54051;53.464;49.532;2023-07-20T09:39:26;7.68;;;1.63;;
67130;SDS011;54051;53.464;49.532;2023-07-20T09:41:52;4.18;;;1.40;;
67130;SDS011;54051;53.464;49.532;2023-07-20T09:44:19;7.45;;;1.52;;
67130;SDS011;54051;53.464;49.532;2023-07-20T09:46:48;5.82;;;1.80;;
67130;SDS011;54051;53.464;49.532;2023-07-20T09:49:19;4.07;;;1.40;;
67130;SDS011;54051;53.464;49.532;2023-07-20T09:51:45;3.78;;;1.48;;
67130;SDS011;54051;53.464;49.532;2023-07-20T09:54:13;3.28;;;1.35;;
67130;SDS011;54051;53.464;49.532;2023-07-20T09:56:42;3.85;;;1.20;;
67130;SDS011;54051;53.464;49.532;2023-07-20T09:59:09;5.18;;;2.13;;
67130;SDS011;54051;53.464;49.532;2023-07-20T10:01:36;4.63;;;1.42;;
67130;SDS011;54051;53.464;49.532;2023-07-20T10:04:07;3.92;;;1.50;;
67130;SDS011;54051;53.464;49.532;2023-07-20T10:06:35;3.85;;;1.40;;
67130;SDS011;54051;53.464;49.532;2023-07-20T10:09:05;5.13;;;1.60;;
67130;SDS011;54051;53.464;49.532;2023-07-20T10:11:34;4.78;;;1.40;;
67130;SDS011;54051;53.464;49.532;2023-07-20T10:14:04;6.32;;;1.50;;
67130;SDS011;54051;53.464;49.532;2023-07-20T10:16:39;4.38;;;1.40;;
67130;SDS011;54051;53.464;49.532;2023-07-20T10:19:17;4.85;;;1.35;;
67130;SDS011;54051;53.464;49.532;2023-07-20T10:22:15;3.70;;;1.23;;
67130;SDS011;54051;53.464;49.532;2023-07-20T10:24:46;4.68;;;1.70;;
67130;SDS011;54051;53.464;49.532;2023-07-20T10:27:15;4.00;;;1.60;;
67130;SDS011;54051;53.464;49.532;2023-07-20T10:29:41;3.92;;;1.45;;
67130;SDS011;54051;53.464;49.532;2023-07-20T10:32:08;5.13;;;1.50;;
67130;SDS011;54051;53.464;49.532;2023-07-20T10:34:35;3.40;;;1.45;;
67130;SDS011;54051;53.464;49.532;2023-07-20T10:37:01;4.55;;;1.40;;
67130;SDS011;54051;53.464;49.532;2023-07-20T10:39:31;4.45;;;1.50;;
67130;SDS011;54051;53.464;49.532;2023-07-20T10:42:01;4.70;;;1.60;;
67130;SDS011;54051;53.464;49.532;2023-07-20T10:44:33;6.60;;;1.80;;
67130;SDS011;54051;53.464;49.532;2023-07-20T10:47:03;6.55;;;1.58;;
67130;SDS011;54051;53.464;49.532;2023-07-20T10:49:34;4.35;;;1.52;;
67130;SDS011;54051;53.464;49.532;2023-07-20T10:52:04;4.93;;;1.52;;
67130;SDS011;54051;53.464;49.532;2023-07-20T10:57:21;3.70;;;1.45;;
67130;SDS011;54051;53.464;49.532;2023-07-20T11:02:55;5.35;;;1.48;;
67130;SDS011;54051;53.464;49.532;2023-07-20T11:08:09;3.58;;;1.50;;
67130;SDS011;54051;53.464;49.532;2023-07-20T11:10:37;4.00;;;1.58;;
67130;SDS011;54051;53.464;49.532;2023-07-20T11:13:16;5.25;;;1.40;;
67130;SDS011;54051;53.464;49.532;2023-07-20T11:18:26;4.22;;;1.42;;
67130;SDS011;54051;53.464;49.532;2023-07-20T11:20:53;4.63;;;1.45;;
67130;SDS011;54051;53.464;49.532;2023-07-20T11:23:20;4.53;;;1.55;;
67130;SDS011;54051;53.464;49.532;2023-07-20T11:25:46;3.97;;;1.60;;
67130;SDS011;54051;53.464;49.532;2023-07-20T11:28:12;3.58;;;1.45;;
67130;SDS011;54051;53.464;49.532;2023-07-20T11:30:38;3.58;;;1.30;;
67130;SDS011;54051;53.464;49.532;2023-07-20T11:33:05;4.78;;;1.60;;
67130;SDS011;54051;53.464;49.532;2023-07-20T11:35:43;4.30;;;1.50;;
67130;SDS011;54051;53.464;49.532;2023-07-20T11:38:12;5.38;;;2.03;;
67130;SDS011;54051;53.464;49.532;2023-07-20T11:40:45;4.65;;;1.50;;
67130;SDS011;54051;53.464;49.532;2023-07-20T11:43:12;4.72;;;1.60;;
67130;SDS011;54051;53.464;49.532;2023-07-20T11:45:38;4.00;;;1.60;;
67130;SDS011;54051;53.464;49.532;2023-07-20T11:48:05;4.00;;;1.70;;
67130;SDS011;54051;53.464;49.532;2023-07-20T11:52:57;4.68;;;1.60;;
67130;SDS011;54051;53.464;49.532;2023-07-20T11:55:23;4.50;;;1.40;;
67130;SDS011;54051;53.464;49.532;2023-07-20T12:00:28;4.10;;;1.48;;
67130;SDS011;54051;53.464;49.532;2023-07-20T12:02:54;4.13;;;1.48;;
67130;SDS011;54051;53.464;49.532;2023-07-20T12:05:22;3.78;;;1.50;;
67130;SDS011;54051;53.464;49.532;2023-07-20T12:07:48;4.38;;;1.40;;
67130;SDS011;54051;53.464;49.532;2023-07-20T12:10:23;5.05;;;1.67;;
67130;SDS011;54051;53.464;49.532;2023-07-20T12:12:51;4.55;;;1.60;;
67130;SDS011;54051;53.464;49.532;2023-07-20T12:17:55;3.88;;;1.38;;
67130;SDS011;54051;53.464;49.532;2023-07-20T12:20:35;4.45;;;1.50;;
67130;SDS011;54051;53.464;49.532;2023-07-20T12:23:03;4.68;;;1.58;;
67130;SDS011;54051;53.464;49.532;2023-07-20T12:28:09;3.55;;;1.40;;
67130;SDS011;54051;53.464;49.532;2023-07-20T12:30:37;4.20;;;1.77;;
67130;SDS011;54051;53.464;49.532;2023-07-20T12:33:04;4.25;;;1.90;;
67130;SDS011;54051;53.464;49.532;2023-07-20T12:35:30;4.28;;;1.50;;
67130;SDS011;54051;53.464;49.532;2023-07-20T12:37:57;4.75;;;1.40;;
67130;SDS011;54051;53.464;49.532;2023-07-20T12:42:50;4.05;;;1.30;;
67130;SDS011;54051;53.464;49.532;2023-07-20T12:45:15;4.00;;;1.40;;
67130;SDS011;54051;53.464;49.532;2023-07-20T12:47:41;4.22;;;1.40;;
67130;SDS011;54051;53.464;49.532;2023-07-20T12:50:09;4.57;;;1.27;;
67130;SDS011;54051;53.464;49.532;2023-07-20T12:52:39;3.20;;;1.20;;
67130;SDS011;54051;53.464;49.532;2023-07-20T12:55:06;4.72;;;1.35;;
67130;SDS011;54051;53.464;49.532;2023-07-20T12:57:34;3.92;;;1.25;;
67130;SDS011;54051;53.464;49.532;2023-07-20T13:00:01;4.97;;;1.40;;
67130;SDS011;54051;53.464;49.532;2023-07-20T13:02:33;4.97;;;1.50;;
67130;SDS011;54051;53.464;49.532;2023-07-20T13:04:59;3.72;;;1.20;;
67130;SDS011;54051;53.464;49.532;2023-07-20T13:07:35;4.07;;;1.50;;
67130;SDS011;54051;53.464;49.532;2023-07-20T13:10:03;5.07;;;1.30;;
67130;SDS011;54051;53.464;49.532;2023-07-20T13:12:30;4.35;;;1.50;;
67130;SDS011;54051;53.464;49.532;2023-07-20T13:14:58;3.38;;;1.20;;
67130;SDS011;54051;53.464;49.532;2023-07-20T13:17:28;3.38;;;1.20;;
67130;SDS011;54051;53.464;49.532;2023-07-20T13:19:54;5.03;;;1.50;;
67130;SDS011;54051;53.464;49.532;2023-07-20T13:22:21;3.45;;;1.42;;
67130;SDS011;54051;53.464;49.532;2023-07-20T13:24:48;4.28;;;1.77;;
67130;SDS011;54051;53.464;49.532;2023-07-20T13:27:16;3.25;;;1.40;;
67130;SDS011;54051;53.464;49.532;2023-07-20T13:29:42;3.97;;;1.40;;
67130;SDS011;54051;53.464;49.532;2023-07-20T13:32:09;3.40;;;1.30;;
67130;SDS011;54051;53.464;49.532;2023-07-20T13:34:35;3.60;;;1.50;;
67130;SDS011;54051;53.464;49.532;2023-07-20T13:37:01;5.63;;;1.42;;
67130;SDS011;54051;53.464;49.532;2023-07-20T13:39:28;3.83;;;1.58;;
67130;SDS011;54051;53.464;49.532;2023-07-20T13:42:02;5.88;;;1.58;;
67130;SDS011;54051;53.464;49.532;2023-07-20T13:44:56;4.60;;;1.52;;
67130;SDS011;54051;53.464;49.532;2023-07-20T13:47:25;3.67;;;1.50;;
67130;SDS011;54051;53.464;49.532;2023-07-20T13:49:51;4.40;;;1.40;;
67130;SDS011;54051;53.464;49.532;2023-07-20T13:52:17;3.58;;;1.50;;
67130;SDS011;54051;53.464;49.532;2023-07-20T13:54:44;6.75;;;1.60;;
67130;SDS011;54051;53.464;49.532;2023-07-20T13:57:30;4.43;;;1.50;;
67130;SDS011;54051;53.464;49.532;2023-07-20T13:59:59;4.40;;;1.55;;
67130;SDS011;54051;53.464;49.532;2023-07-20T14:02:26;4.53;;;1.42;;
67130;SDS011;54051;53.464;49.532;2023-07-20T14:07:21;5.45;;;1.60;;
67130;SDS011;54051;53.464;49.532;2023-07-20T14:09:48;5.03;;;1.70;;
67130;SDS011;54051;53.464;49.532;2023-07-20T14:12:14;4.65;;;1.77;;
67130;SDS011;54051;53.464;49.532;2023-07-20T14:14:40;4.47;;;1.55;;
67130;SDS011;54051;53.464;49.532;2023-07-20T14:17:06;4.15;;;1.80;;
67130;SDS011;54051;53.464;49.532;2023-07-20T14:19:33;4.07;;;1.70;;
67130;SDS011;54051;53.464;49.532;2023-07-20T14:21:59;4.65;;;1.60;;
67130;SDS011;54051;53.464;49.532;2023-07-20T14:24:25;5.88;;;1.75;;
67130;SDS011;54051;53.464;49.532;2023-07-20T14:26:54;6.05;;;1.88;;
67130;SDS011;54051;53.464;49.532;2023-07-20T14:29:20;5.25;;;1.60;;
67130;SDS011;54051;53.464;49.532;2023-07-20T14:31:46;3.97;;;1.45;;
67130;SDS011;54051;53.464;49.532;2023-07-20T14:34:16;4.38;;;1.60;;
67130;SDS011;54051;53.464;49.532;2023-07-20T14:36:44;3.55;;;1.48;;
67130;SDS011;54051;53.464;49.532;2023-07-20T14:39:11;3.92;;;1.50;;
67130;SDS011;54051;53.464;49.532;2023-07-20T14:41:37;4.13;;;1.70;;
67130;SDS011;54051;53.464;49.532;2023-07-20T14:44:03;5.15;;;1.70;;
67130;SDS011;54051;53.464;49.532;2023-07-20T14:46:29;5.90;;;2.33;;
67130;SDS011;54051;53.464;49.532;2023-07-20T14:48:57;4.53;;;1.55;;
67130;SDS011;54051;53.464;49.532;2023-07-20T14:58:41;4.20;;;1.60;;
67130;SDS011;54051;53.464;49.532;2023-07-20T15:01:07;3.28;;;1.40;;
67130;SDS011;54051;53.464;49.532;2023-07-20T15:03:33;3.97;;;1.80;;
67130;SDS011;54051;53.464;49.532;2023-07-20T15:06:00;4.32;;;1.60;;
67130;SDS011;54051;53.464;49.532;2023-07-20T15:08:26;5.25;;;1.52;;
67130;SDS011;54051;53.464;49.532;2023-07-20T15:13:21;5.13;;;1.67;;
67130;SDS011;54051;53.464;49.532;2023-07-20T15:15:48;3.70;;;1.27;;
67130;SDS011;54051;53.464;49.532;2023-07-20T15:18:14;4.28;;;1.40;;
67130;SDS011;54051;53.464;49.532;2023-07-20T15:20:40;3.90;;;1.50;;
67130;SDS011;54051;53.464;49.532;2023-07-20T15:23:07;4.05;;;1.50;;
67130;SDS011;54051;53.464;49.532;2023-07-20T15:25:33;4.10;;;1.60;;
67130;SDS011;54051;53.464;49.532;2023-07-20T15:27:59;4.13;;;1.60;;
67130;SDS011;54051;53.464;49.532;2023-07-20T15:30:26;4.03;;;1.50;;
67130;SDS011;54051;53.464;49.532;2023-07-20T15:32:53;5.47;;;1.67;;
67130;SDS011;54051;53.464;49.532;2023-07-20T15:35:22;3.95;;;1.30;;
67130;SDS011;54051;53.464;49.532;2023-07-20T15:37:49;3.75;;;1.40;;
67130;SDS011;54051;53.464;49.532;2023-07-20T15:40:27;4.15;;;1.50;;